createdAt,value
2022-12-31T00:03:30.164Z,89.06
2022-12-31T00:10:34.391Z,89.23
2022-12-31T00:17:36.352Z,89.41
2022-12-31T00:24:38.402Z,90.03
2022-12-31T00:31:40.396Z,90.36
2022-12-31T00:38:44.620Z,90.37
2022-12-31T00:45:46.670Z,91.33
2022-12-31T00:52:48.671Z,92.16
2022-12-31T00:59:50.607Z,92.30
2022-12-31T01:06:52.750Z,92.18
2022-12-31T01:14:12.304Z,92.31
2022-12-31T01:21:15.065Z,92.57
2022-12-31T01:28:17.068Z,92.45
2022-12-31T01:35:19.400Z,92.30
2022-12-31T01:42:21.482Z,92.14
2022-12-31T01:49:41.505Z,92.11
2022-12-31T01:56:44.171Z,92.00
2022-12-31T02:03:46.227Z,91.73
2022-12-31T02:10:48.239Z,91.56
2022-12-31T02:18:05.364Z,91.46
2022-12-31T02:25:47.686Z,91.16
2022-12-31T02:33:37.772Z,90.80
2022-12-31T02:40:40.254Z,90.87
2022-12-31T02:48:00.366Z,90.81
2022-12-31T02:55:02.420Z,90.59
2022-12-31T03:02:19.750Z,90.46
2022-12-31T03:09:21.881Z,90.37
2022-12-31T03:16:23.829Z,90.46
2022-12-31T03:23:37.623Z,90.11
2022-12-31T03:30:42.697Z,90.15
2022-12-31T03:37:44.718Z,90.05
2022-12-31T03:44:46.811Z,90.25
2022-12-31T03:51:48.893Z,90.19
2022-12-31T03:58:51.094Z,90.43
2022-12-31T04:05:56.537Z,90.46
2022-12-31T04:13:00.554Z,90.79
2022-12-31T04:20:03.262Z,90.46
2022-12-31T04:27:07.746Z,90.26
2022-12-31T04:34:10.154Z,90.07
2022-12-31T04:41:17.900Z,89.66
2022-12-31T04:48:20.075Z,88.99
2022-12-31T04:55:22.100Z,88.67
2022-12-31T05:02:24.160Z,88.46
2022-12-31T05:09:27.802Z,88.64
2022-12-31T05:16:29.851Z,88.50
2022-12-31T05:23:32.111Z,88.72
2022-12-31T05:30:34.124Z,88.61
2022-12-31T05:37:36.198Z,88.38
2022-12-31T05:44:38.155Z,88.59
2022-12-31T05:51:40.119Z,88.35
2022-12-31T05:58:42.042Z,88.55
2022-12-31T06:05:44.071Z,88.58
2022-12-31T06:12:50.602Z,89.03
2022-12-31T06:19:52.803Z,90.48
2022-12-31T06:26:54.803Z,92.02
2022-12-31T06:33:56.937Z,93.34
2022-12-31T06:40:58.885Z,93.12
2022-12-31T06:48:00.860Z,93.16
2022-12-31T06:55:03.216Z,93.15
2022-12-31T07:02:26.006Z,95.03
2022-12-31T07:09:46.649Z,97.79
2022-12-31T07:17:03.947Z,99.42
2022-12-31T07:24:10.589Z,100.00
2022-12-31T07:31:22.377Z,100.00
2022-12-31T07:38:45.748Z,100.00
2022-12-31T07:45:55.680Z,100.00
2022-12-31T07:52:57.951Z,100.00
2022-12-31T08:00:12.103Z,100.00
2022-12-31T08:07:29.155Z,100.00
2022-12-31T08:14:31.573Z,100.00
2022-12-31T08:21:49.451Z,100.00
2022-12-31T08:29:00.858Z,100.00
2022-12-31T08:36:12.744Z,100.00
2022-12-31T08:43:15.004Z,100.00
2022-12-31T08:50:18.816Z,100.00
2022-12-31T08:57:45.534Z,99.40
2022-12-31T09:05:15.497Z,98.75
2022-12-31T09:12:35.574Z,98.39
2022-12-31T09:19:37.836Z,97.68
2022-12-31T09:26:58.471Z,96.93
2022-12-31T09:34:12.468Z,96.82
2022-12-31T09:41:46.953Z,96.31
2022-12-31T09:49:16.541Z,96.12
2022-12-31T09:56:27.588Z,95.58
2022-12-31T10:04:06.959Z,95.56
2022-12-31T10:11:31.216Z,95.59
2022-12-31T10:18:33.307Z,95.29
2022-12-31T10:25:53.170Z,94.65
2022-12-31T10:33:00.721Z,94.17
2022-12-31T10:40:15.838Z,94.13
2022-12-31T10:47:37.075Z,94.41
2022-12-31T10:55:06.803Z,94.54
2022-12-31T11:02:21.054Z,94.04
2022-12-31T11:09:34.381Z,93.94
2022-12-31T11:16:54.046Z,94.02
2022-12-31T11:24:09.255Z,92.89
2022-12-31T11:31:23.378Z,92.20
2022-12-31T11:38:26.671Z,92.59
2022-12-31T11:46:22.598Z,92.51
2022-12-31T11:53:45.481Z,92.21
2022-12-31T12:00:57.637Z,92.40
2022-12-31T12:07:59.664Z,92.45
2022-12-31T12:15:08.472Z,92.79
2022-12-31T12:22:21.157Z,93.10
2022-12-31T12:29:24.736Z,93.31
2022-12-31T12:36:26.674Z,92.37
2022-12-31T12:43:36.796Z,92.99
2022-12-31T12:50:47.772Z,95.21
2022-12-31T12:57:52.804Z,95.60
2022-12-31T13:05:15.810Z,97.46
2022-12-31T13:13:04.861Z,100.00
2022-12-31T13:20:07.685Z,100.00
2022-12-31T13:27:12.575Z,100.00
2022-12-31T13:34:30.781Z,100.00
2022-12-31T13:41:32.893Z,100.00
2022-12-31T13:48:59.132Z,100.00
2022-12-31T13:56:04.082Z,100.00
2022-12-31T14:03:31.250Z,100.00
2022-12-31T14:10:41.908Z,100.00
2022-12-31T14:17:46.914Z,100.00
2022-12-31T14:24:52.778Z,100.00
2022-12-31T14:32:06.765Z,100.00
2022-12-31T14:39:33.691Z,100.00
2022-12-31T14:46:56.872Z,100.00
2022-12-31T14:53:59.428Z,100.00
2022-12-31T15:01:19.313Z,100.00
2022-12-31T15:08:41.396Z,100.00
2022-12-31T15:15:51.964Z,100.00
2022-12-31T15:22:54.665Z,100.00
2022-12-31T15:29:56.900Z,100.00
2022-12-31T15:37:01.270Z,100.00
2022-12-31T15:44:12.211Z,100.00
2022-12-31T15:51:23.584Z,100.00
2022-12-31T15:58:30.497Z,100.00
2022-12-31T16:05:35.403Z,100.00
2022-12-31T16:12:44.347Z,100.00
2022-12-31T16:19:47.552Z,100.00
2022-12-31T16:26:52.221Z,100.00
2022-12-31T16:34:04.863Z,100.00
2022-12-31T16:41:15.449Z,100.00
2022-12-31T16:48:19.112Z,99.90
2022-12-31T16:55:26.201Z,99.07
2022-12-31T17:02:36.950Z,97.84
2022-12-31T17:09:40.063Z,97.19
2022-12-31T17:16:45.049Z,96.41
2022-12-31T17:23:53.951Z,95.84
2022-12-31T17:31:00.618Z,94.83
2022-12-31T17:38:21.456Z,94.35
2022-12-31T17:45:23.682Z,93.93
2022-12-31T17:52:25.809Z,94.08
2022-12-31T17:59:30.851Z,93.36
2022-12-31T18:06:32.935Z,92.78
2022-12-31T18:13:35.434Z,93.03
2022-12-31T18:20:37.402Z,92.99
2022-12-31T18:27:42.193Z,92.30
2022-12-31T18:34:44.226Z,92.80
2022-12-31T18:41:49.814Z,92.17
2022-12-31T18:48:52.170Z,92.43
2022-12-31T18:55:56.383Z,92.59
2022-12-31T19:02:58.585Z,92.12
2022-12-31T19:10:00.832Z,92.21
2022-12-31T19:24:03.792Z,91.54
2022-12-31T19:31:06.118Z,91.38
2022-12-31T19:38:18.443Z,91.42
2022-12-31T19:45:26.083Z,90.74
2022-12-31T19:52:28.263Z,90.49
2022-12-31T19:59:30.267Z,90.25
2022-12-31T20:06:32.320Z,90.27
2022-12-31T20:13:35.761Z,89.95
2022-12-31T20:20:37.741Z,90.00
2022-12-31T20:27:39.899Z,90.30
2022-12-31T20:34:41.948Z,90.42
2022-12-31T20:41:43.929Z,90.48
2022-12-31T20:48:46.532Z,90.62
2022-12-31T20:55:48.677Z,90.39
2022-12-31T21:03:00.249Z,89.96
2022-12-31T21:10:09.040Z,89.40
2022-12-31T21:17:11.095Z,89.00
2022-12-31T21:24:13.304Z,89.04
2022-12-31T21:31:16.747Z,88.94
2022-12-31T21:38:19.084Z,88.74
2022-12-31T21:45:21.111Z,88.79
2022-12-31T21:52:31.875Z,88.68
2022-12-31T22:00:09.307Z,89.09
2022-12-31T22:07:14.390Z,89.06
2022-12-31T22:14:16.472Z,88.93
2022-12-31T22:21:23.610Z,88.81
2022-12-31T22:28:41.119Z,88.40
2022-12-31T22:35:45.704Z,88.41
2022-12-31T22:42:47.859Z,88.32
2022-12-31T22:49:50.044Z,88.71
2022-12-31T22:56:52.165Z,88.42
2022-12-31T23:03:55.200Z,88.46
2022-12-31T23:11:01.441Z,88.38
2022-12-31T23:18:22.286Z,88.12
2022-12-31T23:25:24.334Z,87.87
2022-12-31T23:32:26.353Z,87.88
2022-12-31T23:39:28.901Z,87.74
2022-12-31T23:46:31.114Z,87.22
2022-12-31T23:53:33.185Z,86.86
